x

Port Orford - 15 Nm West Of Port Orford, Or (46015) Wave Buoy

9:50am - Wed 27th Aug 2014 All times are PDT. -7 hours from GMT.

  • Sig Wave height 3.9ft
  • Swell Direction
  • Peak Period 14s
  • Average Period 5s
  • Wind
    16mph, 20mph gusts
  • Sea Temp 52°f
  • Air Temp 54°f
  • Sea Pressure 1018.1mb
  • Port Orford - 15 Nm West Of Port Orford, Or
  • Port Orford - 15 Nm West Of Port Orford, Or

More Historic Weather Station data

Upgrade to MSW Pro to gain access to the past 30 days of data for over 8000 Wavebouys and Weather Stations around the globe.

Join Pro

Comparision Forecast

View Surf forecast
   
Wed 08/27 9:50am 4ft 14s 5s 16 20 mph 1018.1mb 52f 54f
8:50am 4ft 6s 5s 20 22 mph 1017.7mb 52f 54f
7:50am 4ft 6s 5s 20 22 mph 1017.6mb 52f 54f
6:50am 3.5ft 6s 5s 18 20 mph 1017.3mb 53f 54f
5:50am 3.5ft 6s 5s 16 18 mph 1017mb 53f 54f
4:50am 4ft 7s 5s 16 20 mph 1016.8mb 53f 54f
3:50am 4ft 7s 5s 13 16 mph 1016.7mb 53f 55f
1:50am 4ft 6s 6s 18 20 mph 1016.4mb 53f 56f
12:50am 4.5ft 17s 6s 13 16 mph 1016.4mb 53f 56f
Tue 08/26 11:50pm 4.5ft 7s 6s 11
mph
1016.6mb 53f 56f
10:50pm 4ft 7s 6s 9 11 mph 1016.9mb 53f 55f
9:50pm 4.5ft 7s 6s 11
mph
1017mb 54f 56f
8:50pm 4ft 7s 6s 9
mph
1016.9mb 52f 55f
7:50pm 4.5ft 7s 6s 9 11 mph 1016.5mb 53f 55f
6:50pm 4.5ft 7s 6s 7 9 mph 1016.6mb 53f 55f
5:50pm 4.5ft 7s 6s 4 7 mph 1016.8mb 53f 53f
4:50pm 5ft 7s 6s 7 9 mph 1017mb 53f 53f
3:50pm 5ft 7s 6s 7 9 mph 1017.1mb 52f 53f
2:50pm 5ft 7s 6s 7 9 mph 1017.3mb 52f 53f
1:50pm 5.5ft 8s 6s 4 7 mph 1017.4mb 52f 53f
12:50pm 5ft 8s 6s 4 7 mph 1017.2mb 52f 52f
11:50am 5.5ft 8s 6s 4 7 mph 1017.5mb 51f 51f
10:50am 6ft 8s 6s 7 9 mph 1017.4mb 51f 50f
9:50am 6.5ft 8s 6s 9 11 mph 1017.2mb 51f 50f
8:50am 7ft 8s 6s 4 7 mph 1017.2mb 51f 50f
7:50am 7ft 8s 6s 9 11 mph 1016.8mb 51f 50f
6:50am 7.5ft 8s 6s 13 18 mph 1016mb 51f 51f
4:50am 6.5ft 8s 6s 11 13 mph 1014.9mb 51f 51f
3:50am 8ft 8s 6s 16 18 mph 1014.6mb 51f 52f
2:50am 7ft 8s 6s 18 22 mph 1014.4mb 52f 53f
1:50am 6.5ft 8s 6s 18 22 mph 1014.1mb 52f 54f
12:50am 6.5ft 8s 6s 16 20 mph 1013.8mb 52f 54f
Mon 08/25 11:50pm 6.5ft 8s 6s 16 18 mph 1013.7mb 52f 55f
10:50pm 7ft 8s 6s 16 18 mph 1013.1mb 52f 55f
9:50pm 7ft 9s 6s 16 18 mph 1012.9mb 51f 55f
8:50pm 7ft 8s 6s 16 20 mph 1012.6mb 52f 55f
7:50pm 7ft 9s 6s 18 20 mph 1012mb 52f 56f
6:50pm 6.5ft 9s 6s 16 18 mph 1012mb 52f 56f
5:50pm 7ft 8s 6s 20 25 mph 1011.5mb 52f 55f
4:50pm 7ft 8s 6s 22 25 mph 1011.6mb 52f 56f
3:50pm 7ft 8s 6s 20 22 mph 1011.9mb 52f 55f
2:50pm 7.5ft 8s 6s 22 27 mph 1011.8mb 52f 55f
1:50pm 7.5ft 8s 6s 25 29 mph 1011.7mb 52f 55f
12:50pm 7.5ft 8s 6s 25 29 mph 1012mb 52f 54f
11:50am 7ft 8s 6s 20 27 mph 1012.6mb 52f 53f
10:50am 7ft 8s 6s 22 27 mph 1012.7mb 52f 52f
9:50am 6ft 8s 5s 22 27 mph 1012.8mb 52f 53f
8:50am 6ft 8s 5s 22 27 mph 1012.8mb 52f 54f
7:50am 6ft 7s 5s 25 29 mph 1012.4mb 52f 54f
6:50am 5.5ft 7s 5s 25 27 mph 1012.3mb 51f 54f
5:50am 5ft 7s 5s 22 27 mph 1011.9mb 51f 54f
4:50am 5ft 7s 5s 18 22 mph 1011.9mb 52f 54f
3:50am 4.5ft 7s 6s 16 18 mph 1012.1mb 51f 53f
2:50am 5ft 7s 5s 20 22 mph 1012.2mb 52f 54f
12:50am 4.5ft 7s 5s 16 18 mph 1012.9mb 52f 53f
Sun 08/24 11:50pm 4.5ft 7s 6s 16
mph
1012.9mb 53f 54f
10:50pm 5ft 7s 6s 16
mph
1013.1mb 53f 55f
9:50pm 4.5ft 7s 6s 16 18 mph 1013.5mb 52f 55f
7:50pm 5ft 7s 6s 16 18 mph 1013.2mb 52f 56f
6:50pm 4.5ft 7s 6s 16 18 mph 1013.2mb 52f 56f
5:50pm 5ft 7s 6s 16 18 mph 1013.5mb 52f 56f
4:50pm 5ft 7s 5s 18
mph
1013.8mb 52f 57f
3:50pm 5.5ft 7s 6s 18 20 mph 1014mb 53f 58f
2:50pm 5.5ft 8s 6s 16 18 mph 1014.3mb 52f 55f
1:50pm 6ft 8s 6s 13 16 mph 1014.6mb 52f 53f
12:50pm 5.5ft 8s 5s 16 18 mph 1015.2mb 52f 54f
11:50am 6ft 7s 5s 16 18 mph 1015.8mb 52f 53f
10:50am 6.5ft 7s 6s 16 18 mph 1015.9mb 52f 53f
9:50am 7ft 8s 6s 18 20 mph 1015.8mb 52f 53f
8:50am 7ft 8s 6s 20 22 mph 1015.9mb 52f 53f
7:50am 7ft 8s 5s 22 27 mph 1015.7mb 52f 53f
6:50am 7ft 8s 5s 25 31 mph 1015.1mb 52f 53f
5:50am 7ft 8s 5s 22 27 mph 1014.9mb 52f 53f
4:50am 6.5ft 8s 5s 27 34 mph 1014.8mb 52f 54f
3:50am 7ft 8s 5s 25 31 mph 1014.9mb 52f 54f
2:50am 7.5ft 8s 5s 22 27 mph 1015.1mb 52f 53f
1:50am 7ft 7s 6s 22 27 mph 1015.2mb 52f 54f
12:50am 7ft 8s 6s 22 27 mph 1015.4mb 52f 54f
Sat 08/23 11:50pm 7ft 7s 6s 20 22 mph 1015.3mb 52f 54f
10:50pm 7ft 8s 6s 16 20 mph 1015.5mb 52f 55f
9:50pm 6.5ft 7s 5s 18 20 mph 1015.7mb 51f 56f
8:50pm 7ft 7s 6s 18 22 mph 1015.4mb 52f 55f
7:50pm 6.5ft 7s 6s 18 22 mph 1015.3mb 52f 55f
6:50pm 6ft 7s 5s 20 22 mph 1015.3mb 52f 56f